Time;durP1;ratioP1;P1;durP2;ratioP2;P2;SDS_P1;SDS_P2;PMS_P1;PMS_P2;Temp;Humidity;BMP_temperature;BMP_pressure;BME280_temperature;BME280_humidity;BME280_pressure;Samples;Min_cycle;Max_cycle;Signal;HPM_P1;HPM_P2
2023/12/25 00:01:39;;;;;;;4.93;2.97;;;;;;;7.13;100.00;99350.20;1448540;89;21444;-75
2023/12/25 00:04:06;;;;;;;4.73;3.07;;;;;;;7.13;100.00;99363.36;1453231;89;21334;-74
2023/12/25 00:06:34;;;;;;;5.70;3.60;;;;;;;7.16;100.00;99353.03;1449272;89;22212;-74
2023/12/25 00:09:01;;;;;;;6.37;3.40;;;;;;;7.13;100.00;99344.94;1460969;89;21398;-74
2023/12/25 00:11:28;;;;;;;8.17;3.40;;;;;;;7.14;100.00;99334.77;1456127;89;22434;-74
2023/12/25 00:13:55;;;;;;;8.03;4.20;;;;;;;7.11;100.00;99300.05;1448125;89;21503;-74
2023/12/25 00:16:26;;;;;;;6.07;3.30;;;;;;;7.16;100.00;99301.71;1440352;89;22135;-75
2023/12/25 00:18:55;;;;;;;;;;;;;;;7.15;100.00;99293.00;1457079;89;21384;-75
2023/12/25 00:21:22;;;;;;;6.50;2.80;;;;;;;7.19;100.00;99272.00;1454181;89;20380;-75
2023/12/25 00:23:49;;;;;;;5.47;2.97;;;;;;;7.21;100.00;99271.82;1455393;89;21334;-75
2023/12/25 00:26:16;;;;;;;3.13;2.50;;;;;;;7.18;100.00;99299.27;1456491;89;21408;-74
2023/12/25 00:28:43;;;;;;;5.10;3.23;;;;;;;7.21;100.00;99304.72;1444601;89;21481;-74
2023/12/25 00:31:11;;;;;;;4.73;3.10;;;;;;;7.24;100.00;99317.08;1443851;89;22527;-74
2023/12/25 00:33:38;;;;;;;4.83;3.10;;;;;;;7.22;100.00;99326.09;1454860;89;21378;-74
2023/12/25 00:36:06;;;;;;;4.20;3.23;;;;;;;7.23;100.00;99332.54;1457370;89;21439;-74
2023/12/25 00:38:33;;;;;;;4.47;2.90;;;;;;;7.20;100.00;99313.11;1450074;89;21480;-74
2023/12/25 00:41:00;;;;;;;4.40;3.40;;;;;;;7.15;100.00;99331.16;1464617;89;21444;-74
2023/12/25 00:43:28;;;;;;;4.63;3.53;;;;;;;7.19;100.00;99322.45;1454483;89;21319;-74
2023/12/25 00:45:55;;;;;;;4.67;3.93;;;;;;;7.17;100.00;99306.84;1443263;89;21356;-74
2023/12/25 00:48:22;;;;;;;5.47;3.93;;;;;;;7.12;100.00;99303.83;1458419;89;21576;-74
2023/12/25 00:50:49;;;;;;;5.33;3.60;;;;;;;7.13;100.00;99294.95;1458132;89;22405;-74
2023/12/25 00:53:16;;;;;;;5.83;3.77;;;;;;;7.09;100.00;99288.35;1453955;89;21451;-74
2023/12/25 00:55:43;;;;;;;6.93;3.33;;;;;;;7.07;100.00;99306.09;1454454;89;21466;-74
2023/12/25 00:58:10;;;;;;;5.40;3.60;;;;;;;7.07;100.00;99301.32;1456063;89;22339;-74
2023/12/25 01:00:37;;;;;;;9.80;3.73;;;;;;;7.07;100.00;99290.30;1459196;89;21355;-74
2023/12/25 01:03:04;;;;;;;4.97;3.50;;;;;;;7.07;100.00;99289.48;1460467;89;22257;-74
2023/12/25 01:05:31;;;;;;;3.80;2.70;;;;;;;7.05;100.00;99301.48;1451950;89;21364;-74
2023/12/25 01:07:59;;;;;;;5.40;3.10;;;;;;;7.08;100.00;99310.85;1454756;89;21503;-74
2023/12/25 01:10:26;;;;;;;5.87;2.50;;;;;;;7.10;100.00;99300.52;1455896;89;21421;-74
2023/12/25 01:12:53;;;;;;;5.70;3.30;;;;;;;7.10;100.00;99305.78;1442020;89;21363;-74
2023/12/25 01:15:20;;;;;;;4.87;3.03;;;;;;;7.14;100.00;99309.77;1450562;89;22316;-74
2023/12/25 01:17:47;;;;;;;4.97;2.93;;;;;;;7.15;100.00;99314.05;1462950;89;21377;-74
2023/12/25 01:20:15;;;;;;;4.00;2.83;;;;;;;7.20;100.00;99317.55;1457142;89;21385;-74
2023/12/25 01:22:42;;;;;;;3.20;2.30;;;;;;;7.23;100.00;99319.38;1460665;89;21348;-74
2023/12/25 01:25:10;;;;;;;2.70;2.30;;;;;;;7.28;100.00;99320.71;1459449;89;21466;-74
2023/12/25 01:27:41;;;;;;;4.07;3.30;;;;;;;7.30;100.00;99316.95;1458882;89;21348;-74
2023/12/25 01:30:10;;;;;;;3.07;2.13;;;;;;;7.34;100.00;99320.95;1462679;89;21371;-74
2023/12/25 01:32:38;;;;;;;3.07;2.00;;;;;;;7.38;100.00;99306.98;1453178;89;21414;-74
2023/12/25 01:35:06;;;;;;;2.37;1.70;;;;;;;7.42;100.00;99301.73;1447144;89;21289;-75
2023/12/25 01:37:33;;;;;;;3.80;2.30;;;;;;;7.47;100.00;99291.56;1459770;89;21406;-74
2023/12/25 01:40:00;;;;;;;2.83;1.90;;;;;;;7.52;100.00;99294.56;1453074;89;21348;-75
2023/12/25 01:42:28;;;;;;;4.67;2.87;;;;;;;7.57;100.00;99271.23;1455868;89;21859;-74
2023/12/25 01:44:55;;;;;;;2.40;1.63;;;;;;;7.65;100.00;99276.55;1451957;89;22317;-74
2023/12/25 01:47:22;;;;;;;3.97;2.10;;;;;;;7.73;100.00;99261.25;1456581;89;21410;-74
2023/12/25 01:49:50;;;;;;;2.50;1.90;;;;;;;7.80;100.00;99289.95;1452890;89;21578;-75
2023/12/25 01:52:18;;;;;;;3.83;2.20;;;;;;;7.86;100.00;99285.86;1456796;89;21364;-74
2023/12/25 01:54:45;;;;;;;5.00;1.87;;;;;;;7.90;100.00;99280.59;1457035;89;21514;-74
2023/12/25 01:57:12;;;;;;;3.13;1.90;;;;;;;7.96;100.00;99296.27;1460141;89;22539;-75
2023/12/25 01:59:40;;;;;;;3.47;1.83;;;;;;;7.99;100.00;99292.81;1452736;89;21458;-75
2023/12/25 02:02:07;;;;;;;3.03;1.80;;;;;;;8.03;100.00;99277.04;1450735;89;21355;-76
2023/12/25 02:04:35;;;;;;;3.07;2.47;;;;;;;8.06;100.00;99270.13;1455015;89;21575;-75
2023/12/25 02:07:03;;;;;;;2.90;1.93;;;;;;;8.04;100.00;99265.50;1448958;89;21318;-74
2023/12/25 02:09:30;;;;;;;6.63;2.40;;;;;;;8.10;100.00;99271.94;1461596;89;21817;-74
2023/12/25 02:11:57;;;;;;;3.33;2.53;;;;;;;8.09;100.00;99275.58;1453598;89;22531;-75
2023/12/25 02:14:25;;;;;;;3.23;2.07;;;;;;;8.08;100.00;99283.95;1455769;89;21319;-74
2023/12/25 02:16:52;;;;;;;3.90;2.00;;;;;;;8.08;100.00;99301.08;1454211;89;22310;-74
2023/12/25 02:19:44;;;;;;;3.73;2.23;;;;;;;8.09;100.00;99294.02;1446404;89;21407;-75
2023/12/25 02:22:13;;;;;;;3.60;2.20;;;;;;;8.07;100.00;99296.80;1461775;89;22221;-74
2023/12/25 02:24:45;;;;;;;3.20;2.53;;;;;;;8.04;100.00;99296.30;1443480;89;21520;-74
2023/12/25 02:27:13;;;;;;;5.43;3.23;;;;;;;8.01;100.00;99272.41;1449929;89;21311;-75
2023/12/25 02:29:40;;;;;;;6.57;3.40;;;;;;;8.01;100.00;99270.27;1450828;89;21462;-74
2023/12/25 02:32:07;;;;;;;4.20;3.00;;;;;;;8.00;100.00;99266.82;1451331;89;21327;-75
2023/12/25 02:34:34;;;;;;;4.57;3.13;;;;;;;8.01;100.00;99263.19;1451233;89;22347;-74
2023/12/25 02:37:01;;;;;;;5.40;3.47;;;;;;;8.02;100.00;99267.46;1445660;89;22039;-74
2023/12/25 02:39:29;;;;;;;5.70;3.77;;;;;;;8.01;100.00;99265.00;1458079;89;21695;-74
2023/12/25 02:41:56;;;;;;;6.47;4.57;;;;;;;8.00;100.00;99285.27;1458730;89;21465;-74
2023/12/25 02:44:23;;;;;;;6.70;4.20;;;;;;;8.02;100.00;99276.69;1458827;89;21362;-75
2023/12/25 02:46:50;;;;;;;5.70;3.67;;;;;;;8.00;100.00;99291.85;1445592;89;21362;-74
2023/12/25 02:49:18;;;;;;;11.23;4.50;;;;;;;7.96;100.00;99293.13;1455470;88;21414;-75
2023/12/25 02:51:45;;;;;;;8.13;4.63;;;;;;;7.95;100.00;99302.53;1459502;89;21348;-75
2023/12/25 02:54:13;;;;;;;7.03;4.40;;;;;;;7.93;100.00;99315.84;1454462;89;21378;-75
2023/12/25 02:56:41;;;;;;;8.57;4.47;;;;;;;7.88;100.00;99295.27;1457516;89;21453;-74
2023/12/25 02:59:08;;;;;;;8.47;3.90;;;;;;;7.85;100.00;99309.22;1450328;89;21495;-75
2023/12/25 03:01:35;;;;;;;9.63;4.37;;;;;;;7.85;100.00;99311.38;1452776;89;21400;-74
2023/12/25 03:04:03;;;;;;;7.73;5.27;;;;;;;7.82;100.00;99310.84;1452454;89;21393;-74
2023/12/25 03:06:30;;;;;;;9.47;4.63;;;;;;;7.79;100.00;99320.38;1456194;89;21423;-74
2023/12/25 03:08:57;;;;;;;10.13;4.60;;;;;;;7.79;100.00;99325.66;1466789;89;22356;-74
2023/12/25 03:11:25;;;;;;;14.07;5.93;;;;;;;7.78;100.00;99331.91;1454984;89;21386;-74
2023/12/25 03:13:52;;;;;;;15.63;5.30;;;;;;;7.78;100.00;99336.69;1454044;89;21326;-74
2023/12/25 03:16:19;;;;;;;10.60;4.40;;;;;;;7.78;100.00;99334.05;1458528;89;21437;-74
2023/12/25 03:18:47;;;;;;;7.90;4.67;;;;;;;7.72;100.00;99336.49;1460363;89;21341;-74
2023/12/25 03:21:14;;;;;;;11.93;6.70;;;;;;;7.73;100.00;99342.08;1450683;89;21392;-74
2023/12/25 03:23:41;;;;;;;10.07;5.87;;;;;;;7.72;100.00;99345.70;1455526;89;22338;-74
2023/12/25 03:26:08;;;;;;;12.43;5.30;;;;;;;7.71;100.00;99347.98;1459197;89;21304;-74
2023/12/25 03:28:35;;;;;;;9.87;5.17;;;;;;;7.72;100.00;99356.24;1454997;89;21355;-75
2023/12/25 03:31:02;;;;;;;9.20;5.53;;;;;;;7.68;100.00;99347.34;1458047;89;21363;-74
2023/12/25 03:33:30;;;;;;;9.17;5.10;;;;;;;7.73;100.00;99353.94;1450474;89;21333;-75
2023/12/25 03:35:57;;;;;;;14.10;5.97;;;;;;;7.69;100.00;99339.77;1454541;89;21414;-74
2023/12/25 03:38:24;;;;;;;8.43;5.43;;;;;;;7.71;100.00;99338.30;1446971;89;21392;-75
2023/12/25 03:40:51;;;;;;;8.17;4.93;;;;;;;7.73;100.00;99330.23;1463658;89;21318;-74
2023/12/25 03:43:19;;;;;;;11.27;5.03;;;;;;;7.71;100.00;99317.23;1460801;89;22383;-75
2023/12/25 03:45:46;;;;;;;11.73;5.40;;;;;;;7.68;100.00;99321.00;1457162;89;21333;-75
2023/12/25 03:48:13;;;;;;;12.60;5.43;;;;;;;7.67;100.00;99323.78;1455001;89;21348;-74
2023/12/25 03:50:41;;;;;;;12.70;5.83;;;;;;;7.66;100.00;99326.91;1455660;89;22488;-74
2023/12/25 03:53:09;;;;;;;7.83;4.80;;;;;;;7.62;100.00;99311.09;1456663;89;21339;-74
2023/12/25 03:55:36;;;;;;;11.30;6.07;;;;;;;7.61;100.00;99304.16;1456093;89;21473;-74
2023/12/25 03:58:03;;;;;;;10.60;5.07;;;;;;;7.57;100.00;99305.47;1453976;89;21458;-75
2023/12/25 04:00:31;;;;;;;12.90;6.17;;;;;;;7.55;100.00;99299.52;1458977;89;21296;-74
2023/12/25 04:02:58;;;;;;;12.13;6.27;;;;;;;7.53;100.00;99284.85;1456685;89;21370;-75
2023/12/25 04:05:25;;;;;;;10.47;6.00;;;;;;;7.54;100.00;99290.45;1456011;89;21311;-75
2023/12/25 04:07:52;;;;;;;10.50;5.70;;;;;;;7.53;100.00;99283.54;1464037;89;21430;-74
2023/12/25 04:10:19;;;;;;;10.20;6.03;;;;;;;7.52;100.00;99290.62;1460978;89;21384;-75
2023/12/25 04:12:47;;;;;;;11.23;5.70;;;;;;;7.51;100.00;99288.98;1457727;89;21274;-74
2023/12/25 04:15:14;;;;;;;15.37;5.97;;;;;;;7.51;100.00;99291.61;1451985;89;22355;-75
2023/12/25 04:17:42;;;;;;;16.73;6.47;;;;;;;7.51;100.00;99288.98;1450732;89;21600;-74
2023/12/25 04:20:11;;;;;;;10.97;6.30;;;;;;;7.52;100.00;99296.38;1434340;89;21392;-74
2023/12/25 04:22:38;;;;;;;13.70;7.30;;;;;;;7.52;100.00;99307.73;1457456;89;21479;-74
2023/12/25 04:25:06;;;;;;;16.53;7.10;;;;;;;7.53;100.00;99309.38;1456866;89;21332;-75
2023/12/25 04:27:33;;;;;;;16.77;6.00;;;;;;;7.55;100.00;99296.06;1450660;89;22770;-74
2023/12/25 04:30:01;;;;;;;10.97;6.17;;;;;;;7.55;100.00;99296.89;1450588;89;21356;-74
2023/12/25 04:32:28;;;;;;;10.63;5.10;;;;;;;7.56;100.00;99298.53;1450610;89;22387;-74
2023/12/25 04:34:55;;;;;;;13.20;6.20;;;;;;;7.55;100.00;99307.42;1447479;89;21260;-74
2023/12/25 04:37:22;;;;;;;15.10;6.43;;;;;;;7.56;100.00;99294.58;1460166;89;21480;-74
2023/12/25 04:39:50;;;;;;;9.57;5.03;;;;;;;7.58;100.00;99307.10;1454441;89;22339;-74
2023/12/25 04:42:17;;;;;;;9.87;6.00;;;;;;;7.59;100.00;99291.63;1455080;89;21378;-74
2023/12/25 04:44:45;;;;;;;9.60;5.97;;;;;;;7.59;100.00;99294.27;1449400;89;21445;-74
2023/12/25 04:47:12;;;;;;;7.67;5.07;;;;;;;7.59;100.00;99296.89;1454928;89;21377;-75
2023/12/25 04:49:39;;;;;;;15.53;5.63;;;;;;;7.60;100.00;99288.03;1442365;89;22302;-75
2023/12/25 04:52:06;;;;;;;15.60;7.30;;;;;;;7.60;100.00;99284.09;1453252;89;21319;-74
2023/12/25 04:54:35;;;;;;;15.30;6.57;;;;;;;7.60;100.00;99281.45;1462727;89;22353;-74
2023/12/25 04:57:02;;;;;;;13.07;5.80;;;;;;;7.62;100.00;99283.91;1453760;89;21384;-74
2023/12/25 04:59:29;;;;;;;16.60;6.60;;;;;;;7.61;100.00;99287.05;1455405;89;21540;-74
2023/12/25 05:01:58;;;;;;;14.10;7.00;;;;;;;7.62;100.00;99303.20;1457992;89;21385;-74
2023/12/25 05:04:27;;;;;;;12.50;5.40;;;;;;;7.61;100.00;99309.42;1440502;89;21392;-74
2023/12/25 05:06:54;;;;;;;9.27;5.90;;;;;;;7.61;100.00;99337.08;1460664;89;21565;-75
2023/12/25 05:09:21;;;;;;;8.10;4.87;;;;;;;7.58;100.00;99325.53;1453376;89;21421;-74
2023/12/25 05:11:48;;;;;;;13.10;7.30;;;;;;;7.60;100.00;99320.95;1465286;89;21451;-74
2023/12/25 05:14:15;;;;;;;11.83;6.60;;;;;;;7.60;100.00;99328.84;1455697;89;22339;-74
2023/12/25 05:16:43;;;;;;;12.40;6.33;;;;;;;7.57;100.00;99319.95;1455327;89;21583;-74
2023/12/25 05:19:12;;;;;;;20.30;8.07;;;;;;;7.56;100.00;99328.80;1453298;89;21571;-74
2023/12/25 05:21:39;;;;;;;15.40;8.27;;;;;;;7.53;100.00;99340.97;1455756;89;21392;-75
2023/12/25 05:24:07;;;;;;;17.17;6.63;;;;;;;7.53;100.00;99342.28;1454643;89;22339;-74
2023/12/25 05:26:34;;;;;;;9.93;5.47;;;;;;;7.53;100.00;99351.50;1455384;89;22280;-74
2023/12/25 05:29:01;;;;;;;12.57;6.13;;;;;;;7.53;100.00;99350.18;1456741;89;21400;-74
2023/12/25 05:31:28;;;;;;;9.17;6.07;;;;;;;7.52;100.00;99352.48;1456364;89;22450;-74
2023/12/25 05:33:55;;;;;;;10.43;6.13;;;;;;;7.52;100.00;99351.17;1455476;89;21463;-74
2023/12/25 05:36:23;;;;;;;14.23;6.30;;;;;;;7.49;100.00;99344.91;1461885;89;21414;-74
2023/12/25 05:38:52;;;;;;;16.40;7.90;;;;;;;7.50;100.00;99341.77;1452654;89;22273;-74
2023/12/25 05:41:19;;;;;;;13.80;5.53;;;;;;;7.49;100.00;99351.48;1458163;89;22271;-74
2023/12/25 05:43:46;;;;;;;14.50;6.77;;;;;;;7.49;100.00;99361.20;1453649;89;21350;-74
2023/12/25 05:46:13;;;;;;;11.43;6.63;;;;;;;7.46;100.00;99354.42;1450157;89;21355;-74
2023/12/25 05:48:40;;;;;;;10.63;5.90;;;;;;;7.44;100.00;99361.14;1451655;89;21414;-74
2023/12/25 05:51:08;;;;;;;10.00;5.70;;;;;;;7.44;100.00;99366.91;1457372;89;21414;-74
2023/12/25 05:53:35;;;;;;;9.57;7.10;;;;;;;7.44;100.00;99357.20;1456776;89;21363;-74
2023/12/25 05:56:03;;;;;;;16.60;6.20;;;;;;;7.43;100.00;99346.84;1449522;89;21341;-74
2023/12/25 05:58:31;;;;;;;13.60;6.43;;;;;;;7.43;100.00;99349.47;1459007;89;21452;-74
2023/12/25 06:00:58;;;;;;;13.70;5.97;;;;;;;7.42;100.00;99357.01;1456245;89;21245;-74
2023/12/25 06:03:25;;;;;;;14.77;6.67;;;;;;;7.43;100.00;99364.77;1455195;89;22243;-74
2023/12/25 06:05:52;;;;;;;10.47;6.63;;;;;;;7.46;100.00;99370.22;1461947;89;21636;-74
2023/12/25 06:08:20;;;;;;;12.73;5.70;;;;;;;7.47;100.00;99366.59;1456572;89;22250;-74
2023/12/25 06:10:48;;;;;;;8.67;5.23;;;;;;;7.49;100.00;99365.14;1455114;89;22544;-74
2023/12/25 06:13:15;;;;;;;9.03;5.40;;;;;;;7.49;100.00;99371.23;1453308;89;21428;-74
2023/12/25 06:15:43;;;;;;;13.47;7.27;;;;;;;7.52;100.00;99366.15;1455026;89;21990;-74
2023/12/25 06:18:10;;;;;;;11.00;5.73;;;;;;;7.56;100.00;99359.09;1448823;89;21422;-74
2023/12/25 06:20:37;;;;;;;7.87;5.30;;;;;;;7.61;100.00;99363.41;1448076;89;21466;-74
2023/12/25 06:23:04;;;;;;;11.77;5.97;;;;;;;7.67;100.00;99379.08;1461131;89;21281;-75
2023/12/25 06:25:31;;;;;;;8.93;5.53;;;;;;;7.68;100.00;99381.58;1464501;89;21531;-75
2023/12/25 06:27:59;;;;;;;11.40;5.50;;;;;;;7.74;100.00;99384.55;1459895;89;21348;-74
2023/12/25 06:30:26;;;;;;;8.37;5.27;;;;;;;7.79;100.00;99400.72;1457064;89;21430;-75
2023/12/25 06:32:53;;;;;;;11.47;5.27;;;;;;;7.83;100.00;99400.77;1458377;89;21407;-74
2023/12/25 06:35:21;;;;;;;6.63;4.47;;;;;;;7.88;100.00;99399.78;1452955;89;21348;-74
2023/12/25 06:37:51;;;;;;;9.50;5.10;;;;;;;7.90;100.00;99405.73;1459445;89;21767;-74
2023/12/25 06:40:17;;;;;;;7.80;4.47;;;;;;;7.93;100.00;99406.73;1457243;89;22382;-74
2023/12/25 06:42:44;;;;;;;6.30;4.50;;;;;;;7.97;100.00;99397.56;1459655;89;21414;-74
2023/12/25 06:45:12;;;;;;;12.30;7.10;;;;;;;8.00;100.00;99401.20;1452306;89;21347;-74
2023/12/25 06:47:39;;;;;;;9.93;6.10;;;;;;;8.05;100.00;99399.39;1458857;89;21392;-74
2023/12/25 06:50:06;;;;;;;9.50;5.63;;;;;;;8.08;100.00;99385.91;1457567;89;21392;-74
2023/12/25 06:52:33;;;;;;;13.20;5.57;;;;;;;8.12;100.00;99398.63;1455096;89;21659;-75
2023/12/25 06:55:01;;;;;;;9.83;5.20;;;;;;;8.16;100.00;99418.89;1468623;89;22889;-74
2023/12/25 06:57:28;;;;;;;10.37;7.33;;;;;;;8.17;100.00;99412.66;1452229;89;21613;-75
2023/12/25 06:59:57;;;;;;;16.20;8.90;;;;;;;8.20;100.00;99417.62;1462355;89;22346;-75
2023/12/25 07:02:25;;;;;;;19.53;9.60;;;;;;;8.22;100.00;99402.95;1453963;89;22205;-75
2023/12/25 07:04:52;;;;;;;12.93;6.63;;;;;;;8.25;100.00;99406.09;1455851;89;21333;-74
2023/12/25 07:07:19;;;;;;;15.17;8.50;;;;;;;8.28;100.00;99407.09;1458868;89;21311;-75
2023/12/25 07:09:46;;;;;;;15.67;7.57;;;;;;;8.31;100.00;99412.04;1459416;89;22317;-74
2023/12/25 07:12:13;;;;;;;14.43;7.43;;;;;;;8.33;100.00;99413.22;1453169;89;21561;-74
2023/12/25 07:14:42;;;;;;;13.13;7.77;;;;;;;8.33;100.00;99419.81;1456513;89;21459;-74
2023/12/25 07:17:10;;;;;;;13.20;7.13;;;;;;;8.34;100.00;99424.09;1448700;89;21503;-75
2023/12/25 07:19:38;;;;;;;11.53;6.10;;;;;;;8.35;100.00;99425.76;1458785;89;21340;-74
2023/12/25 07:22:05;;;;;;;15.27;7.37;;;;;;;8.36;100.00;99427.40;1458962;89;21805;-75
2023/12/25 07:24:33;;;;;;;14.70;7.87;;;;;;;8.37;100.00;99430.36;1441213;89;22495;-74
2023/12/25 07:27:00;;;;;;;13.67;5.70;;;;;;;8.39;100.00;99424.48;1448842;89;21304;-74
2023/12/25 07:29:27;;;;;;;12.80;5.77;;;;;;;8.40;100.00;99414.75;1455574;89;22199;-74
2023/12/25 07:31:54;;;;;;;10.57;5.97;;;;;;;8.41;100.00;99409.34;1454315;89;21245;-74
2023/12/25 07:34:21;;;;;;;11.63;5.77;;;;;;;8.45;100.00;99417.25;1462016;89;21378;-74
2023/12/25 07:36:49;;;;;;;12.77;5.67;;;;;;;8.51;100.00;99433.75;1451922;89;22243;-74
2023/12/25 07:39:16;;;;;;;11.43;4.67;;;;;;;8.55;100.00;99431.65;1452730;89;21481;-74
2023/12/25 07:41:45;;;;;;;8.87;4.90;;;;;;;8.57;100.00;99439.73;1456187;89;21363;-75
2023/12/25 07:44:13;;;;;;;12.43;5.80;;;;;;;8.67;100.00;99448.02;1446175;89;21422;-75
2023/12/25 07:46:40;;;;;;;8.97;5.33;;;;;;;8.71;100.00;99456.75;1455036;89;21518;-74
2023/12/25 07:49:08;;;;;;;10.00;4.67;;;;;;;8.78;100.00;99464.38;1451332;89;21400;-74
2023/12/25 07:51:35;;;;;;;9.87;6.13;;;;;;;8.84;100.00;99467.37;1456866;89;22332;-74
2023/12/25 07:54:02;;;;;;;7.30;3.93;;;;;;;8.90;100.00;99454.84;1451355;89;21472;-75
2023/12/25 07:56:30;;;;;;;5.80;4.00;;;;;;;8.98;100.00;99465.44;1453806;89;22317;-74
2023/12/25 07:58:58;;;;;;;9.33;5.03;;;;;;;9.03;100.00;99467.92;1458654;89;21524;-75
2023/12/25 08:01:25;;;;;;;8.03;4.27;;;;;;;9.13;100.00;99484.93;1452287;89;21384;-74
2023/12/25 08:03:52;;;;;;;6.47;4.47;;;;;;;9.19;100.00;99479.00;1450114;89;21400;-75
2023/12/25 08:06:20;;;;;;;11.00;7.33;;;;;;;9.22;100.00;99472.58;1463881;89;21517;-74
2023/12/25 08:08:48;;;;;;;7.47;4.97;;;;;;;9.28;100.00;99478.52;1456611;89;21311;-74
2023/12/25 08:11:16;;;;;;;7.00;4.30;;;;;;;9.33;100.00;99476.23;1457997;89;21355;-75
2023/12/25 08:13:43;;;;;;;7.07;3.93;;;;;;;9.40;100.00;99479.86;1456382;89;21289;-74
2023/12/25 08:16:10;;;;;;;6.83;3.67;;;;;;;9.44;100.00;99480.38;1442463;89;21363;-75
2023/12/25 08:18:37;;;;;;;5.13;3.73;;;;;;;9.48;100.00;99481.19;1449940;89;21504;-74
2023/12/25 08:21:06;;;;;;;6.73;4.03;;;;;;;9.52;100.00;99491.42;1447933;89;22240;-75
2023/12/25 08:23:33;;;;;;;8.27;3.47;;;;;;;9.55;100.00;99496.38;1458222;89;21481;-74
2023/12/25 08:26:00;;;;;;;5.43;3.13;;;;;;;9.58;100.00;99509.26;1455539;89;21385;-74
2023/12/25 08:28:28;;;;;;;9.47;5.50;;;;;;;9.64;100.00;99509.95;1453917;89;21355;-74
2023/12/25 08:30:55;;;;;;;4.53;3.67;;;;;;;9.69;100.00;99507.63;1450901;89;21326;-75
2023/12/25 08:33:24;;;;;;;10.13;5.17;;;;;;;9.71;100.00;99501.69;1451092;89;22243;-74
2023/12/25 08:35:52;;;;;;;11.13;5.67;;;;;;;9.76;100.00;99502.52;1449453;89;21392;-74
2023/12/25 08:38:19;;;;;;;8.80;5.73;;;;;;;9.78;100.00;99508.45;1463316;89;21297;-75
2023/12/25 08:40:47;;;;;;;10.57;5.70;;;;;;;9.80;100.00;99507.30;1444840;89;21318;-74
2023/12/25 08:43:14;;;;;;;6.23;4.00;;;;;;;9.85;100.00;99520.03;1458114;89;21364;-74
2023/12/25 08:45:41;;;;;;;5.43;3.70;;;;;;;9.86;100.00;99511.92;1459731;89;22288;-74
2023/12/25 08:48:08;;;;;;;5.87;3.80;;;;;;;9.87;100.00;99522.84;1456934;89;21363;-74
2023/12/25 08:50:35;;;;;;;5.30;3.00;;;;;;;9.89;100.00;99530.09;1454163;89;21318;-74
2023/12/25 08:53:03;;;;;;;5.10;3.50;;;;;;;9.94;100.00;99532.25;1449361;89;22250;-74
2023/12/25 08:55:31;;;;;;;11.43;5.40;;;;;;;9.93;100.00;99532.75;1457670;89;21363;-74
2023/12/25 08:57:59;;;;;;;7.00;3.97;;;;;;;9.99;100.00;99528.63;1456912;89;21495;-74
2023/12/25 09:00:26;;;;;;;8.10;3.93;;;;;;;10.05;100.00;99536.39;1454018;89;22191;-74
2023/12/25 09:02:54;;;;;;;6.27;4.07;;;;;;;10.10;100.00;99548.62;1458023;89;21518;-74
2023/12/25 09:05:21;;;;;;;8.83;5.20;;;;;;;10.09;100.00;99553.55;1454275;89;22228;-74
2023/12/25 09:07:48;;;;;;;8.40;4.83;;;;;;;10.17;100.00;99537.69;1454052;89;21489;-74
2023/12/25 09:10:16;;;;;;;13.37;5.50;;;;;;;10.22;100.00;99535.88;1437466;89;22213;-74
2023/12/25 09:12:43;;;;;;;9.07;5.00;;;;;;;10.26;100.00;99527.93;1463292;89;21407;-74
2023/12/25 09:15:10;;;;;;;9.67;5.40;;;;;;;10.30;100.00;99516.05;1453968;89;22483;-74
2023/12/25 09:17:38;;;;;;;5.00;3.10;;;;;;;10.37;100.00;99523.65;1442246;89;21377;-75
2023/12/25 09:20:06;;;;;;;4.90;3.13;;;;;;;10.43;100.00;99523.48;1450423;89;22198;-74
2023/12/25 09:22:35;;;;;;;6.43;3.00;;;;;;;10.49;100.00;99514.86;1449554;89;22361;-74
2023/12/25 09:25:02;;;;;;;3.77;2.77;;;;;;;10.55;100.00;99511.53;1453039;89;21305;-74
2023/12/25 09:27:30;;;;;;;4.60;4.10;;;;;;;10.57;100.00;99526.25;1451776;89;21341;-75
2023/12/25 09:29:57;;;;;;;6.30;3.03;;;;;;;10.64;100.00;99534.32;1456644;89;22545;-74
2023/12/25 09:32:27;;;;;;;7.33;2.93;;;;;;;10.69;100.00;99535.15;1452999;89;21370;-74
2023/12/25 09:34:54;;;;;;;6.73;3.50;;;;;;;10.73;100.00;99531.16;1453343;89;21370;-75
2023/12/25 09:37:25;;;;;;;4.13;2.50;;;;;;;10.74;100.00;99537.62;1453503;89;22837;-74
2023/12/25 09:39:53;;;;;;;4.40;2.50;;;;;;;10.79;100.00;99537.94;1455080;89;21451;-74
2023/12/25 09:42:21;;;;;;;5.47;2.57;;;;;;;10.81;100.00;99534.59;1455964;89;21363;-74
2023/12/25 09:44:53;;;;;;;4.80;2.80;;;;;;;10.84;100.00;99527.64;1461499;89;21356;-74
2023/12/25 09:47:20;;;;;;;8.67;3.60;;;;;;;10.84;100.00;99532.93;1462166;89;21348;-74
2023/12/25 09:49:48;;;;;;;2.87;1.77;;;;;;;10.88;100.00;99533.44;1456557;89;21362;-75
2023/12/25 09:52:17;;;;;;;3.70;2.33;;;;;;;10.88;100.00;99536.08;1447571;89;21363;-75
2023/12/25 09:54:45;;;;;;;2.90;2.10;;;;;;;10.90;100.00;99535.39;1442835;89;22464;-75
2023/12/25 09:57:15;;;;;;;3.47;2.03;;;;;;;10.92;100.00;99530.77;1454816;89;21436;-74
2023/12/25 09:59:43;;;;;;;3.00;2.50;;;;;;;10.93;100.00;99524.96;1450425;89;21444;-75
2023/12/25 10:02:13;;;;;;;3.80;2.60;;;;;;;10.94;100.00;99522.66;1457024;89;21318;-74
2023/12/25 10:04:42;;;;;;;3.60;2.33;;;;;;;10.99;100.00;99509.70;1453163;89;21348;-74
2023/12/25 10:07:09;;;;;;;4.93;3.00;;;;;;;11.02;100.00;99513.37;1455579;89;21311;-74
2023/12/25 10:09:38;;;;;;;5.27;2.37;;;;;;;11.04;100.00;99516.64;1456065;89;21423;-74
2023/12/25 10:12:07;;;;;;;4.70;3.60;;;;;;;11.08;100.00;99516.64;1461688;89;21362;-75
2023/12/25 10:14:35;;;;;;;3.50;2.33;;;;;;;11.10;100.00;99521.24;1455864;89;21422;-74
2023/12/25 10:17:03;;;;;;;6.40;3.53;;;;;;;11.09;100.00;99531.52;1452142;89;21392;-74
2023/12/25 10:19:30;;;;;;;6.33;3.27;;;;;;;11.14;100.00;99521.75;1457220;89;21371;-75
2023/12/25 10:21:57;;;;;;;4.57;2.60;;;;;;;11.17;100.00;99522.22;1456021;89;21385;-74
2023/12/25 10:24:29;;;;;;;8.07;2.97;;;;;;;11.19;100.00;99513.61;1452439;89;21606;-75
2023/12/25 10:27:02;;;;;;;3.50;2.00;;;;;;;11.25;100.00;99527.98;1459551;89;21444;-74
2023/12/25 10:29:35;;;;;;;3.40;1.57;;;;;;;11.33;100.00;99514.66;1458700;89;21585;-75
2023/12/25 10:32:18;;;;;;;4.23;2.20;;;;;;;11.38;100.00;99514.16;1467446;89;21341;-74
2023/12/25 10:34:45;;;;;;;5.53;2.10;;;;;;;11.42;100.00;99488.95;1465242;89;22287;-74
2023/12/25 10:37:14;;;;;;;3.90;2.00;;;;;;;11.44;100.00;99475.03;1458913;89;21413;-74
2023/12/25 10:39:41;;;;;;;3.10;1.73;;;;;;;11.49;100.00;99485.93;1466654;89;21944;-74
2023/12/25 10:42:13;;;;;;;3.63;2.20;;;;;;;11.53;100.00;99479.27;1455287;89;22434;-74
2023/12/25 10:44:45;;;;;;;2.83;1.80;;;;;;;11.60;100.00;99476.25;1438699;89;22413;-75
2023/12/25 10:47:14;;;;;;;4.80;1.87;;;;;;;11.65;100.00;99489.80;1455038;89;23006;-73
2023/12/25 10:49:45;;;;;;;4.30;2.17;;;;;;;11.72;100.00;99485.42;1457478;89;22213;-73
2023/12/25 10:52:12;;;;;;;;;;;;;;;11.72;100.00;99480.13;1465585;89;21429;-72
2023/12/25 10:54:42;;;;;;;8.53;4.33;;;;;;;11.74;100.00;99476.80;1462165;89;20290;-74
2023/12/25 10:57:09;;;;;;;3.70;2.47;;;;;;;11.78;100.00;99481.74;1442204;89;21912;-75
2023/12/25 10:59:42;;;;;;;8.40;3.27;;;;;;;11.71;100.00;99473.18;1457724;89;22127;-74
2023/12/25 11:02:13;;;;;;;5.47;2.90;;;;;;;11.78;100.00;99489.19;1452663;89;22273;-74
2023/12/25 11:04:46;;;;;;;6.77;3.10;;;;;;;11.82;100.00;99483.02;1459011;89;22407;-75
2023/12/25 11:07:16;;;;;;;7.90;5.57;;;;;;;11.84;100.00;99488.47;1464576;89;21930;-74
2023/12/25 11:09:46;;;;;;;6.08;3.98;;;;;;;11.89;100.00;99513.98;1456347;89;22526;-75
2023/12/25 11:12:13;;;;;;;6.10;3.73;;;;;;;11.88;100.00;99516.33;1457049;89;22287;-74
2023/12/25 11:14:40;;;;;;;4.93;3.30;;;;;;;11.91;100.00;99509.34;1455476;89;21406;-74
2023/12/25 11:17:08;;;;;;;3.53;2.37;;;;;;;11.86;100.00;99518.83;1454711;89;21429;-75
2023/12/25 11:19:36;;;;;;;3.80;2.07;;;;;;;11.82;100.00;99518.81;1458801;89;21529;-74
2023/12/25 11:22:31;;;;;;;3.23;2.23;;;;;;;11.79;100.00;99529.27;1453701;89;21379;-74
2023/12/25 11:25:01;;;;;;;5.50;2.73;;;;;;;11.72;100.00;99530.98;1454042;89;21451;-74
2023/12/25 11:27:30;;;;;;;4.13;2.23;;;;;;;11.70;100.00;99539.61;1459162;89;21474;-75
2023/12/25 11:30:04;;;;;;;5.27;3.20;;;;;;;11.65;100.00;99529.55;1458427;89;21312;-74
2023/12/25 11:32:31;;;;;;;6.93;2.70;;;;;;;11.67;100.00;99520.91;1456535;89;21436;-74